Time;durP1;ratioP1;P1;durP2;ratioP2;P2;SDS_P1;SDS_P2;PMS_P1;PMS_P2;Temp;Humidity;BMP_temperature;BMP_pressure;BME280_temperature;BME280_humidity;BME280_pressure;Samples;Min_cycle;Max_cycle;Signal;HPM_P1;HPM_P2
2022/09/07 00:00:49;;;;;;;6.03;2.30;;;17.00;99.90;;;;;;5081267;28;20449;-74
2022/09/07 00:04:09;;;;;;;3.40;2.33;;;17.00;99.90;;;;;;5078570;28;20973;-74
2022/09/07 00:07:33;;;;;;;3.13;2.40;;;17.00;99.90;;;;;;5076314;28;20456;-74
2022/09/07 00:10:56;;;;;;;2.63;2.43;;;17.00;99.90;;;;;;5077650;28;20532;-74
2022/09/07 00:14:07;;;;;;;3.10;2.90;;;17.00;99.90;;;;;;5077395;28;20964;-74
2022/09/07 00:20:39;;;;;;;2.90;2.70;;;17.00;99.90;;;;;;5077327;28;20461;-74
2022/09/07 00:23:37;;;;;;;3.53;2.50;;;17.00;99.90;;;;;;5078881;28;20473;-74
2022/09/07 00:29:58;;;;;;;3.67;2.87;;;17.00;99.90;;;;;;5077365;28;20464;-74
2022/09/07 00:32:56;;;;;;;7.13;3.47;;;17.00;99.90;;;;;;5078265;28;20564;-74
2022/09/07 00:36:03;;;;;;;3.13;2.83;;;16.90;99.90;;;;;;5079925;28;20523;-75
2022/09/07 00:39:18;;;;;;;2.90;2.70;;;16.90;99.90;;;;;;5079499;28;20487;-74
2022/09/07 00:42:18;;;;;;;3.70;3.07;;;16.90;99.90;;;;;;5077837;28;20466;-74
2022/09/07 00:45:22;;;;;;;3.13;2.80;;;16.90;99.90;;;;;;5079062;28;20469;-75
2022/09/07 00:48:40;;;;;;;3.50;2.73;;;16.90;99.90;;;;;;5076259;28;20446;-74
2022/09/07 00:52:09;;;;;;;3.50;2.63;;;16.90;99.90;;;;;;5076948;28;20491;-74
2022/09/07 00:55:26;;;;;;;;;;;;;;;;;;;;;
2022/09/07 00:58:51;;;;;;;3.07;2.77;;;16.80;99.90;;;;;;5090711;28;20477;-74
2022/09/07 01:01:50;;;;;;;4.43;3.30;;;16.90;99.90;;;;;;5075191;28;20485;-74
2022/09/07 01:05:27;;;;;;;;;;;;;;;;;;;;;
2022/09/07 01:08:41;;;;;;;3.27;3.07;;;16.80;99.90;;;;;;5075676;28;20446;-75
2022/09/07 01:11:54;;;;;;;5.37;3.20;;;16.80;99.90;;;;;;5076231;28;20469;-75
2022/09/07 01:15:23;;;;;;;4.87;3.03;;;16.80;99.90;;;;;;5075067;28;20789;-74
2022/09/07 01:18:27;;;;;;;3.33;3.03;;;16.80;99.90;;;;;;5074872;28;20846;-74
2022/09/07 01:21:40;;;;;;;4.63;3.10;;;16.80;99.90;;;;;;5079269;28;20850;-74
2022/09/07 01:28:39;;;;;;;3.37;3.17;;;16.80;99.90;;;;;;5075550;28;21016;-74
2022/09/07 01:32:00;;;;;;;3.00;2.80;;;16.80;99.90;;;;;;5076684;28;20481;-74
2022/09/07 01:35:31;;;;;;;3.63;3.27;;;16.80;99.90;;;;;;5059959;28;20464;-74
2022/09/07 01:38:35;;;;;;;2.77;2.57;;;16.80;99.90;;;;;;5078982;28;20487;-74
2022/09/07 01:41:38;;;;;;;3.20;3.00;;;16.80;99.90;;;;;;5075115;28;20507;-74
2022/09/07 01:44:42;;;;;;;2.63;2.43;;;16.80;99.90;;;;;;5077489;28;20980;-74
2022/09/07 01:48:07;;;;;;;4.77;3.17;;;16.80;99.90;;;;;;5079487;28;20448;-74
2022/09/07 01:51:14;;;;;;;3.10;2.80;;;16.80;99.90;;;;;;5077506;28;20464;-74
2022/09/07 01:54:24;;;;;;;3.37;3.10;;;16.70;99.90;;;;;;5078395;28;20464;-74
2022/09/07 01:57:19;;;;;;;4.33;3.20;;;16.70;99.90;;;;;;5079516;28;20933;-75
2022/09/07 02:00:18;;;;;;;4.00;3.20;;;16.70;99.90;;;;;;5074342;28;20476;-74
2022/09/07 02:03:31;;;;;;;2.97;2.63;;;16.70;99.90;;;;;;5074882;28;21071;-74
2022/09/07 02:06:58;;;;;;;3.93;3.20;;;16.70;99.90;;;;;;5075580;28;20462;-74
2022/09/07 02:10:15;;;;;;;4.93;3.53;;;16.80;99.90;;;;;;5081877;28;20581;-74
2022/09/07 02:13:37;;;;;;;3.73;2.97;;;16.80;99.90;;;;;;5068367;28;20477;-74
2022/09/07 02:17:01;;;;;;;3.20;2.97;;;16.70;99.90;;;;;;5080644;28;20484;-74
2022/09/07 02:20:30;;;;;;;3.33;3.00;;;16.70;99.90;;;;;;5079563;28;20539;-74
2022/09/07 02:23:46;;;;;;;3.60;3.30;;;16.70;99.90;;;;;;5064529;28;20820;-74
2022/09/07 02:27:11;;;;;;;4.70;3.50;;;16.70;99.90;;;;;;5027667;28;20447;-74
2022/09/07 02:30:13;;;;;;;3.43;3.13;;;16.70;99.90;;;;;;5025961;28;20467;-74
2022/09/07 02:33:22;;;;;;;3.40;3.10;;;16.70;99.90;;;;;;5027368;28;20475;-74
2022/09/07 02:36:38;;;;;;;3.57;3.27;;;16.70;99.90;;;;;;5022147;28;20994;-74
2022/09/07 02:39:41;;;;;;;3.10;2.90;;;16.70;99.90;;;;;;5025583;28;20539;-75
2022/09/07 02:43:31;;;;;;;;;;;;;;;;;;;;;
2022/09/07 02:46:55;;;;;;;3.80;3.50;;;16.70;99.90;;;;;;5026021;28;20448;-76
2022/09/07 02:50:20;;;;;;;3.80;3.50;;;16.70;99.90;;;;;;5028399;28;20453;-74
2022/09/07 02:53:38;;;;;;;;;;;;;;;;;;;;;
2022/09/07 02:57:04;;;;;;;3.70;3.40;;;16.70;99.90;;;;;;5078953;28;20454;-74
2022/09/07 03:00:12;;;;;;;3.80;3.50;;;16.70;99.90;;;;;;5080891;28;20534;-74
2022/09/07 03:03:27;;;;;;;4.03;3.63;;;16.70;99.90;;;;;;5076960;28;20490;-74
2022/09/07 03:06:55;;;;;;;3.50;3.20;;;16.70;99.90;;;;;;5073853;28;20462;-74
2022/09/07 03:10:02;;;;;;;3.93;3.60;;;16.60;99.90;;;;;;5074718;28;20938;-76
2022/09/07 03:13:27;;;;;;;5.10;3.33;;;16.60;99.90;;;;;;5077423;28;20850;-74
2022/09/07 03:16:34;;;;;;;5.90;3.93;;;16.60;99.90;;;;;;5076496;28;20460;-74
2022/09/07 03:22:58;;;;;;;3.53;3.23;;;16.60;99.90;;;;;;5037399;28;20480;-74
2022/09/07 03:25:54;;;;;;;3.97;3.67;;;16.60;99.90;;;;;;5079279;28;20456;-74
2022/09/07 03:32:19;;;;;;;5.13;4.10;;;16.60;99.90;;;;;;5071139;28;20605;-74
2022/09/07 03:35:26;;;;;;;5.03;4.07;;;16.60;99.90;;;;;;5074791;28;20450;-74
2022/09/07 03:38:37;;;;;;;3.93;3.60;;;16.60;99.90;;;;;;5076016;28;20490;-74
2022/09/07 03:41:49;;;;;;;4.27;3.83;;;16.60;99.90;;;;;;5078192;28;20467;-74
2022/09/07 03:48:38;;;;;;;4.43;3.90;;;16.50;99.90;;;;;;5080185;28;20466;-74
2022/09/07 03:51:36;;;;;;;6.40;4.30;;;16.50;99.90;;;;;;5078384;28;20540;-74
2022/09/07 03:54:43;;;;;;;5.20;4.30;;;16.50;99.90;;;;;;5081171;28;20464;-75
2022/09/07 03:58:04;;;;;;;4.10;3.80;;;16.50;99.90;;;;;;5083055;28;20475;-74
2022/09/07 04:08:04;;;;;;;6.03;4.33;;;16.50;99.90;;;;;;5056841;28;20556;-74
2022/09/07 04:11:20;;;;;;;5.60;4.00;;;16.50;99.90;;;;;;5077832;28;20801;-75
2022/09/07 04:14:23;;;;;;;4.63;4.03;;;16.50;99.90;;;;;;5076112;28;20471;-74
2022/09/07 04:17:52;;;;;;;4.80;4.40;;;16.50;99.90;;;;;;5077480;28;20676;-74
2022/09/07 04:21:19;;;;;;;4.77;4.20;;;16.50;99.90;;;;;;5077014;28;20998;-74
2022/09/07 04:24:37;;;;;;;5.43;4.90;;;16.40;99.90;;;;;;5072547;28;20572;-75
2022/09/07 04:31:31;;;;;;;5.03;4.63;;;16.40;99.90;;;;;;5072669;28;20535;-74
2022/09/07 04:34:41;;;;;;;5.03;4.63;;;16.40;99.90;;;;;;5074704;28;20456;-74
2022/09/07 04:37:55;;;;;;;5.90;5.27;;;16.40;99.90;;;;;;5070376;28;20488;-73
2022/09/07 04:41:05;;;;;;;6.03;5.00;;;16.40;99.90;;;;;;5063692;28;20525;-74
2022/09/07 04:47:29;;;;;;;6.53;4.90;;;16.40;99.90;;;;;;5075833;28;20837;-74
2022/09/07 04:50:34;;;;;;;6.50;4.90;;;16.30;99.90;;;;;;5058734;28;20471;-75
2022/09/07 04:53:28;;;;;;;5.77;4.90;;;16.30;99.90;;;;;;5069263;28;20483;-73
2022/09/07 04:56:17;;;;;;;5.97;5.37;;;16.30;99.90;;;;;;5073575;28;20562;-73
2022/09/07 04:59:06;;;;;;;6.63;6.03;;;16.40;99.90;;;;;;5065216;28;20477;-75
2022/09/07 05:01:58;;;;;;;5.50;5.00;;;16.40;99.90;;;;;;5065411;28;20483;-72
2022/09/07 05:04:47;;;;;;;6.20;5.60;;;16.40;99.90;;;;;;5069525;28;20461;-73
2022/09/07 05:07:39;;;;;;;7.13;5.50;;;16.30;99.90;;;;;;5073319;28;20785;-73
2022/09/07 05:10:30;;;;;;;5.83;5.27;;;16.40;99.90;;;;;;5072342;28;20528;-73
2022/09/07 05:13:24;;;;;;;5.97;4.90;;;16.40;99.90;;;;;;5057126;28;20584;-74
2022/09/07 05:16:18;;;;;;;5.83;4.83;;;16.50;99.90;;;;;;5056786;28;21305;-73
2022/09/07 05:19:15;;;;;;;6.23;4.90;;;16.50;99.90;;;;;;5074725;28;21187;-73
2022/09/07 05:22:09;;;;;;;5.70;4.63;;;16.50;99.90;;;;;;5070340;28;20477;-73
2022/09/07 05:25:03;;;;;;;6.80;4.80;;;16.40;99.90;;;;;;5067263;28;21098;-74
2022/09/07 05:27:53;;;;;;;5.33;4.90;;;16.40;99.90;;;;;;5067367;28;20571;-74
2022/09/07 05:30:49;;;;;;;7.93;5.00;;;16.40;99.90;;;;;;5066054;28;20547;-74
2022/09/07 05:34:06;;;;;;;4.80;4.40;;;16.50;99.90;;;;;;5071948;28;20504;-74
2022/09/07 05:37:19;;;;;;;5.37;4.87;;;16.50;99.90;;;;;;5062586;28;20864;-74
2022/09/07 05:40:11;;;;;;;5.20;4.70;;;16.50;99.90;;;;;;5066254;28;20485;-74
2022/09/07 05:43:02;;;;;;;5.80;5.30;;;16.50;99.90;;;;;;5077195;28;20853;-74
2022/09/07 05:45:56;;;;;;;6.33;5.13;;;16.50;99.90;;;;;;5077087;28;20536;-74
2022/09/07 05:48:49;;;;;;;8.57;4.73;;;16.60;99.90;;;;;;5071869;28;20467;-74
2022/09/07 05:51:47;;;;;;;5.10;4.70;;;16.60;99.90;;;;;;5078810;28;21360;-74
2022/09/07 05:54:39;;;;;;;5.43;4.93;;;16.60;99.90;;;;;;5076481;28;20449;-74
2022/09/07 05:57:30;;;;;;;5.27;4.87;;;16.60;99.90;;;;;;5079237;28;20843;-74
2022/09/07 06:00:20;;;;;;;5.40;5.00;;;16.60;99.90;;;;;;5077336;28;20954;-74
2022/09/07 06:03:08;;;;;;;5.17;4.67;;;16.60;99.90;;;;;;5076730;28;20477;-74
2022/09/07 06:06:01;;;;;;;7.53;5.57;;;16.60;99.90;;;;;;5064111;28;20457;-74
2022/09/07 06:08:51;;;;;;;5.37;4.87;;;16.60;99.90;;;;;;5078395;28;20457;-74
2022/09/07 06:11:39;;;;;;;6.80;4.70;;;16.60;99.90;;;;;;5076163;28;20555;-74
2022/09/07 06:14:29;;;;;;;7.83;4.70;;;16.60;99.90;;;;;;5079992;28;20481;-74
2022/09/07 06:17:18;;;;;;;7.17;5.20;;;16.60;99.90;;;;;;5079955;28;20467;-74
2022/09/07 06:20:08;;;;;;;6.60;5.20;;;16.60;99.90;;;;;;5079571;28;20571;-74
2022/09/07 06:22:56;;;;;;;6.60;5.00;;;16.60;99.90;;;;;;5073884;28;20538;-74
2022/09/07 06:25:48;;;;;;;5.00;4.60;;;16.60;99.90;;;;;;5074852;28;20501;-74
2022/09/07 06:28:38;;;;;;;5.00;4.37;;;16.60;99.90;;;;;;5076906;28;20441;-75
2022/09/07 06:31:28;;;;;;;4.87;4.47;;;16.60;99.90;;;;;;5074612;28;20613;-74
2022/09/07 06:34:17;;;;;;;6.00;4.80;;;16.60;99.90;;;;;;5076675;28;20444;-74
2022/09/07 06:37:05;;;;;;;9.30;5.10;;;16.60;99.90;;;;;;5081590;28;20452;-74
2022/09/07 06:39:53;;;;;;;5.87;5.07;;;16.60;99.90;;;;;;5080614;28;20563;-74
2022/09/07 06:42:42;;;;;;;6.87;4.87;;;16.60;99.90;;;;;;5074985;28;21908;-74
2022/09/07 06:45:34;;;;;;;6.13;5.53;;;16.60;99.90;;;;;;5076119;28;20558;-74
2022/09/07 06:48:26;;;;;;;5.73;5.27;;;16.50;99.90;;;;;;5078335;28;20445;-74
2022/09/07 06:51:17;;;;;;;6.37;5.77;;;16.50;99.90;;;;;;5076748;28;20487;-74
2022/09/07 06:54:06;;;;;;;5.83;4.83;;;16.50;99.90;;;;;;5073000;28;20468;-74
2022/09/07 06:57:14;;;;;;;5.40;4.97;;;16.50;99.90;;;;;;5076706;28;20457;-74
2022/09/07 07:00:05;;;;;;;6.30;5.20;;;16.40;99.90;;;;;;5078496;28;20578;-74
2022/09/07 07:02:57;;;;;;;5.70;5.20;;;16.40;99.90;;;;;;5077381;28;20476;-74
2022/09/07 07:05:52;;;;;;;6.87;6.17;;;16.40;99.90;;;;;;5077131;28;20821;-74
2022/09/07 07:08:41;;;;;;;6.90;6.40;;;16.40;99.90;;;;;;5077001;28;20469;-74
2022/09/07 07:11:30;;;;;;;6.80;6.20;;;16.40;99.90;;;;;;5075128;28;20484;-74
2022/09/07 07:14:19;;;;;;;6.50;5.70;;;16.30;99.90;;;;;;5075354;28;20457;-74
2022/09/07 07:17:09;;;;;;;7.07;6.37;;;16.30;99.90;;;;;;5077635;28;20461;-74
2022/09/07 07:19:58;;;;;;;7.00;6.30;;;16.30;99.90;;;;;;5075438;28;20591;-74
2022/09/07 07:22:51;;;;;;;6.80;6.13;;;16.20;99.90;;;;;;5073485;28;20621;-74
2022/09/07 07:25:39;;;;;;;9.77;6.27;;;16.20;99.90;;;;;;5075247;28;20547;-74
2022/09/07 07:28:31;;;;;;;6.93;6.27;;;16.20;99.90;;;;;;5073486;28;21032;-74
2022/09/07 07:31:39;;;;;;;7.07;6.47;;;16.10;99.90;;;;;;5073940;28;20473;-74
2022/09/07 07:34:27;;;;;;;7.53;6.80;;;16.10;99.90;;;;;;5076156;28;23111;-74
2022/09/07 07:37:17;;;;;;;9.23;6.37;;;16.10;99.90;;;;;;5074681;28;21077;-74
2022/09/07 07:40:10;;;;;;;7.27;6.67;;;16.10;99.90;;;;;;5075335;28;20485;-74
2022/09/07 07:43:05;;;;;;;10.07;7.70;;;16.10;99.90;;;;;;5075185;28;20817;-74
2022/09/07 07:45:56;;;;;;;7.33;6.63;;;16.00;99.90;;;;;;5076939;28;20550;-74
2022/09/07 07:48:48;;;;;;;7.37;6.77;;;16.00;99.90;;;;;;5076643;28;20453;-74
2022/09/07 07:51:36;;;;;;;7.67;6.87;;;16.00;99.90;;;;;;5076974;28;20483;-74
2022/09/07 07:54:46;;;;;;;7.37;6.67;;;16.00;99.90;;;;;;5073815;28;20441;-74
2022/09/07 07:57:38;;;;;;;7.77;6.37;;;16.00;99.90;;;;;;5074417;28;20456;-73
2022/09/07 08:00:27;;;;;;;7.93;7.07;;;16.00;99.90;;;;;;5077869;28;20474;-75
2022/09/07 08:03:36;;;;;;;8.10;6.83;;;16.00;99.90;;;;;;5077173;28;20486;-74
2022/09/07 08:06:25;;;;;;;7.30;6.57;;;15.90;99.90;;;;;;5070853;28;20457;-74
2022/09/07 08:09:13;;;;;;;7.57;6.93;;;15.90;99.90;;;;;;5074859;28;21119;-74
2022/09/07 08:12:02;;;;;;;7.63;6.93;;;15.90;99.90;;;;;;5074140;28;20474;-74
2022/09/07 08:14:52;;;;;;;8.07;7.27;;;15.80;99.90;;;;;;5074624;28;20460;-74
2022/09/07 08:17:41;;;;;;;8.27;6.90;;;15.80;99.90;;;;;;5075464;28;20452;-74
2022/09/07 08:20:29;;;;;;;7.83;7.13;;;15.80;99.90;;;;;;5072113;28;20489;-74
2022/09/07 08:23:20;;;;;;;7.30;6.70;;;15.80;99.90;;;;;;5075393;28;20481;-74
2022/09/07 08:26:09;;;;;;;6.87;6.10;;;15.70;99.90;;;;;;5074680;28;20449;-74
2022/09/07 08:28:57;;;;;;;6.93;6.43;;;15.70;99.90;;;;;;5073732;28;20450;-74
2022/09/07 08:31:47;;;;;;;6.80;6.17;;;15.70;99.90;;;;;;5074024;28;20476;-74
2022/09/07 08:34:36;;;;;;;7.97;6.80;;;15.70;99.90;;;;;;5072486;28;20968;-73
2022/09/07 08:37:25;;;;;;;8.20;7.57;;;15.70;99.90;;;;;;5075833;28;20460;-74
2022/09/07 08:40:16;;;;;;;7.40;6.73;;;15.70;99.90;;;;;;5073195;28;20478;-74
2022/09/07 08:43:14;;;;;;;7.17;6.50;;;15.60;99.90;;;;;;5075996;28;20480;-74
2022/09/07 08:46:11;;;;;;;7.50;6.73;;;15.60;99.90;;;;;;5074737;28;20449;-74
2022/09/07 08:49:07;;;;;;;9.00;8.10;;;15.70;99.90;;;;;;5075159;28;20482;-74
2022/09/07 08:51:59;;;;;;;8.03;6.90;;;15.70;99.90;;;;;;5073769;28;20555;-74
2022/09/07 08:54:58;;;;;;;7.00;6.40;;;15.70;99.90;;;;;;5073370;28;20453;-74
2022/09/07 08:57:56;;;;;;;9.13;7.80;;;15.70;99.90;;;;;;5075290;28;20440;-74
2022/09/07 09:00:44;;;;;;;8.23;7.27;;;15.70;99.90;;;;;;5073512;28;20479;-74
2022/09/07 09:03:33;;;;;;;8.23;6.90;;;15.70;99.90;;;;;;5075695;28;20483;-74
2022/09/07 09:06:51;;;;;;;8.30;7.50;;;15.70;99.90;;;;;;5073446;28;20441;-74
2022/09/07 09:09:54;;;;;;;8.07;7.37;;;15.70;99.90;;;;;;5073845;28;20449;-74
2022/09/07 09:12:57;;;;;;;9.53;8.63;;;15.80;99.90;;;;;;5072177;28;20853;-73
2022/09/07 09:15:53;;;;;;;8.00;7.23;;;15.80;99.90;;;;;;5075377;28;20452;-74
2022/09/07 09:18:57;;;;;;;18.83;8.30;;;15.80;99.90;;;;;;5077599;28;20449;-74
2022/09/07 09:21:47;;;;;;;9.23;8.17;;;15.80;99.90;;;;;;5076567;28;20477;-73
2022/09/07 09:24:38;;;;;;;11.33;8.60;;;15.90;99.90;;;;;;5079347;28;20582;-74
2022/09/07 09:27:26;;;;;;;8.07;7.27;;;15.90;99.90;;;;;;5077637;28;20459;-73
2022/09/07 09:30:17;;;;;;;8.57;7.77;;;15.90;99.90;;;;;;5078707;28;20441;-74
2022/09/07 09:33:15;;;;;;;7.90;7.30;;;16.00;99.90;;;;;;5077580;28;21047;-74
2022/09/07 09:36:19;;;;;;;8.17;7.40;;;16.00;99.90;;;;;;5079869;28;20479;-74
2022/09/07 09:42:14;;;;;;;10.43;7.37;;;16.10;99.90;;;;;;5060287;27;20938;-74
2022/09/07 09:45:04;;;;;;;7.43;6.83;;;16.20;99.90;;;;;;5045585;28;21019;-74
2022/09/07 09:47:54;;;;;;;7.50;6.90;;;16.30;99.90;;;;;;5063573;28;20480;-74
2022/09/07 09:50:51;;;;;;;7.87;7.07;;;16.30;99.90;;;;;;5068247;28;21009;-73
2022/09/07 09:54:04;;;;;;;7.83;7.13;;;16.40;99.90;;;;;;5068264;28;20466;-74
2022/09/07 09:56:54;;;;;;;7.80;6.87;;;16.50;99.90;;;;;;5080034;28;20483;-74
2022/09/07 09:59:44;;;;;;;7.63;6.93;;;16.60;99.90;;;;;;5083071;28;20536;-74
2022/09/07 10:03:17;;;;;;;6.97;6.37;;;16.60;99.90;;;;;;5081429;28;21485;-74
2022/09/07 10:06:25;;;;;;;7.43;6.87;;;16.60;99.90;;;;;;5083033;28;20452;-74
2022/09/07 10:09:19;;;;;;;8.57;7.10;;;16.70;99.90;;;;;;5085433;28;20452;-74
2022/09/07 10:12:21;;;;;;;7.70;7.00;;;16.70;99.90;;;;;;5080070;28;20480;-74
2022/09/07 10:15:26;;;;;;;6.57;6.03;;;16.80;99.90;;;;;;5087515;28;20475;-74
2022/09/07 10:18:22;;;;;;;7.17;6.67;;;16.90;99.90;;;;;;5083364;28;20448;-74
2022/09/07 10:21:22;;;;;;;6.47;5.97;;;16.90;99.90;;;;;;5080619;28;20473;-74
2022/09/07 10:24:15;;;;;;;8.13;6.90;;;17.00;99.90;;;;;;5079642;28;20476;-74
2022/09/07 10:27:19;;;;;;;6.70;6.13;;;17.10;99.90;;;;;;5079703;28;20841;-74
2022/09/07 10:30:14;;;;;;;6.77;6.07;;;17.20;99.90;;;;;;5068901;28;20441;-74
2022/09/07 10:33:07;;;;;;;6.73;6.13;;;17.40;99.90;;;;;;5083766;28;20472;-74
2022/09/07 10:36:04;;;;;;;7.83;7.20;;;17.40;99.90;;;;;;5084279;28;20498;-74
2022/09/07 10:38:59;;;;;;;7.93;7.17;;;17.50;99.90;;;;;;5079900;28;20468;-74
2022/09/07 10:41:59;;;;;;;7.57;6.97;;;17.60;99.90;;;;;;5085134;28;20464;-74
2022/09/07 10:45:00;;;;;;;7.80;7.20;;;17.70;99.90;;;;;;5086810;28;21351;-74
2022/09/07 10:48:02;;;;;;;8.57;7.77;;;17.80;99.90;;;;;;5091211;28;20558;-74
2022/09/07 10:50:56;;;;;;;7.17;6.67;;;18.00;99.90;;;;;;5080568;28;21123;-74
2022/09/07 10:53:53;;;;;;;7.90;7.30;;;18.10;99.90;;;;;;5075701;28;20466;-74
2022/09/07 10:57:20;;;;;;;9.07;8.33;;;18.20;99.90;;;;;;5072676;28;20457;-74
2022/09/07 11:00:12;;;;;;;8.03;7.43;;;18.40;99.90;;;;;;5072623;28;20523;-74
2022/09/07 11:03:22;;;;;;;8.90;8.10;;;18.50;99.90;;;;;;5075003;28;21024;-74
2022/09/07 11:06:18;;;;;;;7.90;7.07;;;18.70;99.90;;;;;;5076142;28;20493;-74
2022/09/07 11:09:39;;;;;;;7.90;7.40;;;18.80;99.90;;;;;;5068409;28;20450;-74
2022/09/07 11:12:30;;;;;;;7.10;6.50;;;18.90;99.90;;;;;;5074130;28;20830;-74
2022/09/07 11:15:24;;;;;;;9.07;8.27;;;19.10;99.90;;;;;;5075473;28;20715;-74
2022/09/07 11:18:17;;;;;;;7.50;6.90;;;19.20;99.90;;;;;;5068770;28;20514;-74
2022/09/07 11:21:13;;;;;;;8.60;7.90;;;19.40;99.90;;;;;;5070296;28;20803;-74
2022/09/07 11:24:09;;;;;;;8.37;7.67;;;19.60;99.90;;;;;;5061016;28;20477;-74
2022/09/07 11:27:02;;;;;;;8.53;7.83;;;19.70;99.90;;;;;;5064059;28;20820;-74
2022/09/07 11:29:56;;;;;;;7.33;6.83;;;19.80;99.90;;;;;;5070556;28;20457;-74
2022/09/07 11:32:58;;;;;;;7.97;7.37;;;19.80;99.90;;;;;;5074572;28;20469;-74
2022/09/07 11:35:51;;;;;;;7.60;6.90;;;20.00;99.90;;;;;;5068671;28;20445;-74
2022/09/07 11:38:44;;;;;;;8.27;6.80;;;20.10;99.90;;;;;;5074788;28;20441;-74
2022/09/07 11:41:40;;;;;;;6.80;6.30;;;20.20;99.90;;;;;;5074348;28;20468;-74
2022/09/07 11:44:35;;;;;;;8.67;7.83;;;20.40;99.90;;;;;;5071213;28;20457;-74
2022/09/07 11:47:29;;;;;;;6.10;5.70;;;20.50;99.90;;;;;;5074618;28;20457;-74
2022/09/07 11:50:19;;;;;;;7.03;6.50;;;20.70;99.90;;;;;;5077968;28;20458;-74
2022/09/07 11:53:12;;;;;;;8.20;7.50;;;20.80;99.90;;;;;;5088483;28;20491;-74
2022/09/07 11:56:05;;;;;;;7.80;7.20;;;21.00;99.90;;;;;;5093258;28;20448;-73
2022/09/07 11:59:11;;;;;;;6.30;5.90;;;21.10;99.90;;;;;;5094753;28;20441;-74
2022/09/07 12:02:17;;;;;;;6.70;6.20;;;21.20;99.90;;;;;;5097009;28;20797;-74
2022/09/07 12:05:20;;;;;;;6.77;6.17;;;21.40;99.90;;;;;;5092345;28;20619;-75
2022/09/07 12:08:19;;;;;;;6.30;5.80;;;21.50;99.90;;;;;;5087944;28;20448;-74
2022/09/07 12:11:32;;;;;;;6.17;5.70;;;21.60;99.90;;;;;;5085495;28;20481;-74
2022/09/07 12:14:36;;;;;;;6.37;5.87;;;21.70;99.90;;;;;;5082316;28;20448;-74
2022/09/07 12:17:45;;;;;;;6.77;6.23;;;21.90;99.90;;;;;;5076668;28;20975;-72
2022/09/07 12:20:40;;;;;;;5.90;5.50;;;22.10;99.90;;;;;;5078065;28;20444;-72
2022/09/07 12:23:30;;;;;;;6.37;5.87;;;22.20;99.90;;;;;;5072740;28;20488;-73
2022/09/07 12:26:49;;;;;;;6.30;5.80;;;22.30;99.90;;;;;;5074379;28;20452;-73
2022/09/07 12:29:38;;;;;;;6.67;6.17;;;22.50;99.90;;;;;;5078967;28;20451;-72
2022/09/07 12:33:03;;;;;;;6.77;6.20;;;22.70;99.90;;;;;;5081376;28;21011;-72
2022/09/07 12:35:53;;;;;;;6.30;5.60;;;22.90;99.90;;;;;;5082176;28;20459;-72
2022/09/07 12:39:04;;;;;;;6.70;6.20;;;23.00;99.90;;;;;;5087210;28;20444;-72
2022/09/07 12:42:14;;;;;;;7.40;6.80;;;23.30;99.90;;;;;;5081158;28;20816;-72
2022/09/07 12:45:50;;;;;;;6.77;6.27;;;23.50;99.90;;;;;;5075486;28;20456;-72
2022/09/07 12:48:48;;;;;;;6.20;5.80;;;23.60;99.90;;;;;;5081921;28;20445;-75
2022/09/07 12:51:38;;;;;;;7.17;6.50;;;23.90;99.90;;;;;;5079332;28;20824;-72
2022/09/07 12:54:55;;;;;;;7.27;6.60;;;24.10;99.90;;;;;;5079676;28;20464;-71
2022/09/07 12:58:17;;;;;;;6.60;5.90;;;24.30;99.90;;;;;;5087814;28;20441;-73
2022/09/07 13:01:27;;;;;;;6.43;6.00;;;24.50;99.90;;;;;;5079528;28;20480;-71
2022/09/07 13:04:50;;;;;;;5.97;5.47;;;24.80;99.90;;;;;;5090785;28;20557;-71
2022/09/07 13:08:08;;;;;;;6.60;6.07;;;25.10;99.90;;;;;;5080752;28;20464;-72
2022/09/07 13:11:21;;;;;;;5.70;5.30;;;25.50;99.90;;;;;;5087363;28;20447;-72
2022/09/07 13:14:20;;;;;;;6.80;6.20;;;25.80;99.90;;;;;;5076265;28;20468;-72
2022/09/07 13:17:42;;;;;;;6.00;5.50;;;26.10;99.90;;;;;;5075328;28;20457;-72
2022/09/07 13:20:31;;;;;;;5.40;5.00;;;26.30;99.90;;;;;;5080989;28;20456;-72
2022/09/07 13:23:25;;;;;;;5.37;5.00;;;26.60;99.90;;;;;;5075313;28;20629;-72
2022/09/07 13:26:59;;;;;;;6.37;5.97;;;27.00;99.90;;;;;;5073692;28;22302;-73
2022/09/07 13:29:51;;;;;;;6.50;6.10;;;27.60;99.90;;;;;;5078258;28;20449;-72
2022/09/07 13:32:39;;;;;;;6.07;5.53;;;28.10;99.90;;;;;;5073316;28;20500;-71
2022/09/07 13:35:48;;;;;;;5.40;5.00;;;28.50;99.90;;;;;;5081166;28;20933;-72
2022/09/07 13:38:41;;;;;;;6.33;5.83;;;29.10;99.90;;;;;;5074059;28;20448;-73
2022/09/07 13:41:34;;;;;;;6.20;5.90;;;29.70;99.90;;;;;;5069124;28;20827;-74
2022/09/07 13:44:28;;;;;;;6.40;5.90;;;30.00;99.90;;;;;;5068333;28;20829;-74
2022/09/07 13:47:22;;;;;;;7.17;6.57;;;30.10;99.90;;;;;;5073230;28;21449;-74
2022/09/07 13:50:20;;;;;;;6.57;6.03;;;30.30;99.90;;;;;;5057126;28;20449;-74
2022/09/07 13:53:32;;;;;;;7.23;6.70;;;30.20;99.90;;;;;;5058738;28;20498;-73
2022/09/07 13:56:36;;;;;;;7.10;6.70;;;29.80;99.90;;;;;;5063104;28;20544;-74
2022/09/07 13:59:30;;;;;;;7.50;7.00;;;29.40;99.90;;;;;;5074778;28;21049;-73
2022/09/07 14:02:24;;;;;;;8.90;8.10;;;28.90;99.90;;;;;;5075267;28;20476;-73
2022/09/07 14:05:19;;;;;;;6.97;6.57;;;28.50;99.90;;;;;;5079022;28;20451;-73
2022/09/07 14:08:29;;;;;;;7.83;7.33;;;28.20;99.90;;;;;;5074307;28;20463;-73
2022/09/07 14:11:28;;;;;;;7.57;6.90;;;27.80;99.90;;;;;;5080083;28;20851;-73
2022/09/07 14:14:19;;;;;;;9.27;8.47;;;27.60;99.90;;;;;;5075770;28;20449;-73
2022/09/07 14:17:13;;;;;;;7.03;6.50;;;27.40;99.90;;;;;;5078270;28;20475;-73
2022/09/07 14:20:04;;;;;;;7.40;6.90;;;27.20;99.90;;;;;;5067493;28;20454;-74
2022/09/07 14:22:53;;;;;;;7.80;7.30;;;27.10;99.90;;;;;;5073223;28;20475;-74
2022/09/07 14:25:41;;;;;;;8.03;7.40;;;27.00;99.90;;;;;;5077710;28;21180;-73
2022/09/07 14:28:52;;;;;;;8.10;7.60;;;26.90;99.90;;;;;;5082057;28;20456;-74
2022/09/07 14:31:42;;;;;;;8.03;7.43;;;26.90;99.90;;;;;;5083520;28;20499;-73
2022/09/07 14:34:34;;;;;;;8.03;7.53;;;26.70;99.90;;;;;;5082008;28;22567;-73
2022/09/07 14:37:23;;;;;;;8.10;7.50;;;26.60;99.90;;;;;;5082808;28;20503;-73
2022/09/07 14:40:15;;;;;;;7.47;7.00;;;26.60;99.90;;;;;;5074730;28;20456;-73
2022/09/07 14:43:04;;;;;;;7.17;6.70;;;26.70;99.90;;;;;;5077149;28;20468;-73
2022/09/07 14:45:52;;;;;;;7.10;6.50;;;26.80;99.90;;;;;;5083609;28;20455;-73
2022/09/07 14:48:42;;;;;;;7.30;6.80;;;26.60;99.90;;;;;;5088663;28;20456;-73
2022/09/07 14:51:43;;;;;;;8.27;7.67;;;26.50;99.90;;;;;;5083898;28;20934;-74
2022/09/07 14:54:33;;;;;;;7.53;7.03;;;26.30;99.90;;;;;;5084516;28;20469;-73
2022/09/07 14:57:29;;;;;;;10.40;7.83;;;26.20;99.90;;;;;;5085096;28;20479;-74
2022/09/07 15:00:27;;;;;;;8.03;7.53;;;26.10;99.90;;;;;;5083092;28;21091;-73
2022/09/07 15:03:29;;;;;;;7.93;7.33;;;25.90;99.90;;;;;;5083597;28;20832;-74
2022/09/07 15:06:36;;;;;;;7.63;7.13;;;25.80;99.90;;;;;;5086550;28;21345;-73
2022/09/07 15:09:48;;;;;;;7.60;7.10;;;25.70;99.90;;;;;;5086517;28;20455;-73
2022/09/07 15:12:41;;;;;;;7.27;6.77;;;25.60;99.90;;;;;;5071828;28;22573;-73
2022/09/07 15:15:32;;;;;;;8.03;7.53;;;25.50;99.90;;;;;;5065459;28;20441;-73
2022/09/07 15:18:49;;;;;;;8.37;7.67;;;25.40;99.90;;;;;;5065630;28;20456;-73
2022/09/07 15:21:38;;;;;;;9.37;8.70;;;25.40;99.90;;;;;;5066907;28;20485;-73
2022/09/07 15:24:27;;;;;;;8.30;7.80;;;25.30;99.90;;;;;;5073776;28;20468;-73
2022/09/07 15:27:20;;;;;;;8.83;8.23;;;25.20;99.90;;;;;;5061819;28;20457;-73
2022/09/07 15:30:10;;;;;;;7.87;7.30;;;25.20;99.90;;;;;;5067857;28;20609;-72
2022/09/07 15:32:58;;;;;;;8.40;7.90;;;25.10;99.90;;;;;;5077212;28;20478;-73
2022/09/07 15:35:48;;;;;;;8.73;8.13;;;25.00;99.90;;;;;;5080371;28;20498;-72
2022/09/07 15:38:37;;;;;;;8.83;8.13;;;24.90;99.90;;;;;;5079302;28;20469;-72
2022/09/07 15:41:47;;;;;;;8.63;8.03;;;24.90;99.90;;;;;;5084858;28;20487;-73
2022/09/07 15:44:35;;;;;;;8.00;7.40;;;24.80;99.90;;;;;;5093148;28;20444;-72
2022/09/07 15:47:27;;;;;;;8.37;7.87;;;24.80;99.90;;;;;;5088175;28;20964;-74
2022/09/07 15:50:36;;;;;;;9.67;9.00;;;24.70;99.90;;;;;;5086740;28;20449;-73
2022/09/07 15:53:25;;;;;;;8.97;8.30;;;24.60;99.90;;;;;;5082944;28;20987;-73
2022/09/07 15:56:34;;;;;;;9.37;8.60;;;24.60;99.90;;;;;;5092538;28;20468;-73
2022/09/07 15:59:24;;;;;;;8.73;7.93;;;24.60;99.90;;;;;;5097084;28;20483;-73
2022/09/07 16:02:12;;;;;;;9.10;8.50;;;24.50;99.90;;;;;;5092449;28;20476;-74
2022/09/07 16:05:20;;;;;;;8.73;8.03;;;24.50;99.90;;;;;;5083363;28;20512;-74
2022/09/07 16:08:10;;;;;;;8.60;7.80;;;24.40;99.90;;;;;;5087797;28;20447;-73
2022/09/07 16:11:17;;;;;;;8.40;7.70;;;24.40;99.90;;;;;;5096781;28;20471;-74
2022/09/07 16:14:10;;;;;;;8.10;7.60;;;24.40;99.90;;;;;;5095370;28;21328;-74
2022/09/07 16:16:58;;;;;;;8.70;8.10;;;24.40;99.90;;;;;;5089407;28;20552;-74
2022/09/07 16:20:07;;;;;;;8.43;7.87;;;24.40;99.90;;;;;;5095395;28;20452;-74
2022/09/07 16:22:56;;;;;;;8.23;7.53;;;24.30;99.90;;;;;;5095655;28;20475;-73